This is the latest recevied weather packets stored in our database for station/object SM6LNJ-13. If no packets are shown the sender has not sent any weather packets the latest 1 day(s).
| Time | Temp. | Humidity | Pressure | Rain* | Wind** | Luminosity | Snow |
|---|---|---|---|---|---|---|---|
| 1836274782 | 16.67° C | 91% | 1435.1 hPa | 0 mm | 1.79 m/s, 140° | - | - |
| 1836274662 | 16.67° C | 91% | 1435.1 hPa | 0 mm | 0.89 m/s, 145° | - | - |
| 1836274542 | 16.67° C | 91% | 1435.1 hPa | 0 mm | 1.34 m/s, 152° | - | - |
| 1836274512 | 16.67° C | 92% | 1434.9 hPa | 0 mm | 1.34 m/s, 145° | - | - |
| 1836274422 | 16.67° C | 91% | 1435.1 hPa | 0 mm | 1.34 m/s, 144° | - | - |
| 1836274392 | 16.67° C | 92% | 1435 hPa | 0 mm | 1.34 m/s, 139° | - | - |
| 1836274302 | 16.67° C | 91% | 1435.1 hPa | 0 mm | 1.34 m/s, 156° | - | - |
| 1836274272 | 16.67° C | 92% | 1435 hPa | 0 mm | 0.89 m/s, 139° | - | - |
| 1836274182 | 16.67° C | 91% | 1435.1 hPa | 0 mm | 0.89 m/s, 134° | - | - |
| 1836274152 | 16.67° C | 92% | 1435 hPa | 0 mm | 0.89 m/s, 150° | - | - |
| 1836274062 | 16.67° C | 91% | 1435.1 hPa | 0 mm | 1.79 m/s, 149° | - | - |
| 1836273942 | 16.67° C | 91% | 1435.1 hPa | 0 mm | 1.34 m/s, 150° | - | - |
| 1778069390 | 14.44° C | 49% | 1429.9 hPa | 0 mm | 0.89 m/s, 213° | - | - |
| 1778069270 | 14.44° C | 50% | 1429.5 hPa | 0 mm | 0.45 m/s, 222° | - | - |
| 1778069150 | 14.44° C | 49% | 1429.1 hPa | 0 mm | 0.89 m/s, 242° | - | - |
| 1778069030 | 14.44° C | 48% | 1429.3 hPa | 0 mm | 0.89 m/s, 223° | - | - |
| 1778068910 | 14.44° C | 48% | 1429 hPa | 0 mm | 0.89 m/s, 215° | - | - |
| 1778068790 | 13.89° C | 48% | 1429 hPa | 0 mm | 0.45 m/s, 183° | - | - |
| 1778068670 | 13.89° C | 48% | 1428.5 hPa | 0 mm | 0.89 m/s, 220° | - | - |
| 1778068550 | 13.89° C | 49% | 1428.4 hPa | 0 mm | 0.89 m/s, 218° | - | - |
| 1778068430 | 13.89° C | 49% | 1428.2 hPa | 0 mm | 0.89 m/s, 230° | - | - |
| 1778068310 | 13.89° C | 49% | 1428.1 hPa | 0 mm | 0.89 m/s, 221° | - | - |
| 1778068190 | 13.89° C | 48% | 1428.3 hPa | 0 mm | 0.89 m/s, 229° | - | - |
| 1778068070 | 13.89° C | 47% | 1427.9 hPa | 0 mm | 0.89 m/s, 218° | - | - |
| 1778067950 | 13.89° C | 46% | 1428.1 hPa | 0 mm | 0.89 m/s, 190° | - | - |
* Rain latest hour (hover to see other rain measurements)
** Current wind speed in m/s (hover to see current wind gust speed)